Time;durP1;ratioP1;P1;durP2;ratioP2;P2;SDS_P1;SDS_P2;PMS_P1;PMS_P2;Temp;Humidity;BMP_temperature;BMP_pressure;BME280_temperature;BME280_humidity;BME280_pressure;Samples;Min_cycle;Max_cycle;Signal;HPM_P1;HPM_P2
2022/02/22 00:01:29;;;;;;;;;;;;;;;4.60;63.24;97436.34;4924136;29;19931;-80
2022/02/22 00:03:57;;;;;;;;;;;;;;;4.62;63.03;97440.34;4928321;29;20335;-81
2022/02/22 00:06:25;;;;;;;;;;;;;;;4.64;63.40;97454.34;4927959;29;19935;-78
2022/02/22 00:08:53;;;;;;;;;;;;;;;4.57;63.40;97453.03;4929559;29;20844;-79
2022/02/22 00:11:21;;;;;;;;;;;;;;;4.59;63.87;97457.06;4925175;29;19926;-79
2022/02/22 00:13:49;;;;;;;;;;;;;;;4.60;63.49;97464.03;4927061;29;20548;-80
2022/02/22 00:16:17;;;;;;;;;;;;;;;4.51;63.98;97463.03;4927183;29;19927;-77
2022/02/22 00:18:47;;;;;;;;;;;;;;;4.54;64.50;97454.41;4926842;29;19977;-78
2022/02/22 00:21:15;;;;;;;;;;;;;;;4.60;64.56;97471.31;4925401;29;19932;-79
2022/02/22 00:23:48;;;;;;;;;;;;;;;4.45;65.44;97477.63;4926878;29;20314;-80
2022/02/22 00:26:15;;;;;;;;;;;;;;;4.49;66.31;97472.50;4924366;29;19927;-79
2022/02/22 00:28:46;;;;;;;;;;;;;;;4.35;66.99;97483.88;4923041;29;20369;-81
2022/02/22 00:31:14;;;;;;;;;;;;;;;4.36;67.53;97490.06;4925471;29;19927;-80
2022/02/22 00:33:44;;;;;;;;;;;;;;;4.27;68.05;97481.00;4927262;29;19969;-79
2022/02/22 00:36:13;;;;;;;;;;;;;;;4.26;68.18;97490.16;4923978;29;19927;-78
2022/02/22 00:38:42;;;;;;;;;;;;;;;4.22;68.73;97500.69;4925394;29;20618;-77
2022/02/22 00:41:10;;;;;;;;;;;;;;;4.24;68.99;97497.69;4927207;29;19984;-77
2022/02/22 00:43:38;;;;;;;;;;;;;;;4.32;68.64;97494.44;4924499;29;19927;-78
2022/02/22 00:46:08;;;;;;;;;;;;;;;4.30;69.04;97508.13;4926411;29;19966;-78
2022/02/22 00:48:36;;;;;;;;;;;;;;;4.30;69.08;97504.63;4927063;29;20279;-77
2022/02/22 00:51:04;;;;;;;;;;;;;;;4.13;69.72;97530.03;4926347;29;19967;-77
2022/02/22 00:53:36;;;;;;;;;;;;;;;4.15;69.93;97522.47;4926731;29;19927;-78
2022/02/22 00:56:04;;;;;;;;;;;;;;;4.12;69.78;97520.38;4925336;29;19982;-79
2022/02/22 00:58:34;;;;;;;;;;;;;;;4.06;70.32;97528.75;4923944;29;21057;-79
2022/02/22 01:01:02;;;;;;;;;;;;;;;4.09;70.44;97530.84;4926813;29;20049;-78
2022/02/22 01:03:30;;;;;;;;;;;;;;;4.11;69.90;97544.84;4927943;29;19931;-79
2022/02/22 01:06:09;;;;;;;;;;;;;;;3.96;70.14;97550.31;4928757;29;19927;-78
2022/02/22 01:08:38;;;;;;;;;;;;;;;3.95;70.43;97533.38;4917501;29;19930;-80
2022/02/22 01:11:09;;;;;;;;;;;;;;;3.94;70.60;97537.13;4922888;29;19933;-79
2022/02/22 01:13:37;;;;;;;;;;;;;;;3.86;70.52;97535.03;4926409;29;20046;-79
2022/02/22 01:16:05;;;;;;;;;;;;;;;4.02;70.09;97533.06;4924566;29;19934;-78
2022/02/22 01:18:35;;;;;;;;;;;;;;;3.95;70.38;97536.06;4926424;29;19973;-79
2022/02/22 01:21:03;;;;;;;;;;;;;;;3.91;70.70;97554.63;4926942;29;19931;-77
2022/02/22 01:23:30;;;;;;;;;;;;;;;4.07;70.41;97541.09;4928247;29;20349;-79
2022/02/22 01:26:00;;;;;;;;;;;;;;;4.08;69.91;97537.31;4924751;29;19982;-77
2022/02/22 01:28:28;;;;;;;;;;;;;;;4.05;69.89;97544.06;4925498;29;19927;-78
2022/02/22 01:30:56;;;;;;;;;;;;;;;4.05;70.30;97549.44;4924287;29;19927;-79
2022/02/22 01:33:24;;;;;;;;;;;;;;;4.05;70.28;97551.31;4925605;29;19935;-81
2022/02/22 01:35:52;;;;;;;;;;;;;;;4.09;70.37;97549.69;4923410;29;19933;-81
2022/02/22 01:38:20;;;;;;;;;;;;;;;4.03;70.48;97558.84;4923263;29;20410;-82
2022/02/22 01:40:47;;;;;;;;;;;;;;;4.07;70.06;97558.03;4926735;29;19937;-78
2022/02/22 01:43:16;;;;;;;;;;;;;;;4.19;69.19;97561.16;4921267;29;19946;-80
2022/02/22 01:45:46;;;;;;;;;;;;;;;4.07;69.80;97568.78;4921930;29;19927;-77
2022/02/22 01:48:18;;;;;;;;;;;;;;;4.14;69.38;97558.50;4924668;29;20370;-77
2022/02/22 01:50:47;;;;;;;;;;;;;;;4.02;69.61;97571.50;4923037;29;19928;-81
2022/02/22 01:53:15;;;;;;;;;;;;;;;4.06;69.78;97577.94;4914092;29;19933;-79
2022/02/22 01:55:44;;;;;;;;;;;;;;;4.06;69.69;97587.88;4922385;29;19926;-81
2022/02/22 01:58:12;;;;;;;;;;;;;;;4.08;69.01;97580.34;4921698;29;19935;-79
2022/02/22 02:03:36;;;;;;;;;;;;;;;4.09;68.83;97582.75;4923229;29;19927;-79
2022/02/22 02:06:04;;;;;;;;;;;;;;;4.01;68.97;97577.16;4923269;29;20021;-80
2022/02/22 02:08:35;;;;;;;;;;;;;;;4.01;68.80;97585.22;4923307;29;19965;-78
2022/02/22 02:11:09;;;;;;;;;;;;;;;4.01;68.51;97593.28;4925138;29;19927;-80
2022/02/22 02:13:37;;;;;;;;;;;;;;;3.96;68.20;97594.09;4921329;29;19978;-77
2022/02/22 02:16:09;;;;;;;;;;;;;;;4.04;68.28;97590.03;4920552;29;19970;-77
2022/02/22 02:18:36;;;;;;;;;;;;;;;3.94;67.94;97599.75;4922409;29;20355;-79
2022/02/22 02:23:57;;;;;;;;;;;;;;;3.94;67.40;97590.88;4924511;29;19935;-80
2022/02/22 02:26:25;;;;;;;;;;;;;;;4.03;67.04;97597.28;4924004;29;20389;-78
2022/02/22 02:28:53;;;;;;;;;;;;;;;3.97;67.02;97601.09;4925447;29;19933;-79
2022/02/22 02:31:20;;;;;;;;;;;;;;;4.14;66.08;97609.59;4921608;29;19927;-78
2022/02/22 02:33:48;;;;;;;;;;;;;;;4.00;66.63;97615.88;4924764;29;19931;-78
2022/02/22 02:36:16;;;;;;;;;;;;;;;3.87;66.02;97611.88;4922372;29;20402;-77
2022/02/22 02:38:43;;;;;;;;;;;;;;;3.85;66.32;97616.72;4921671;29;20452;-81
2022/02/22 02:41:12;;;;;;;;;;;;;;;3.80;65.90;97624.81;4923280;29;19974;-82
2022/02/22 02:43:40;;;;;;;;;;;;;;;3.77;65.88;97628.84;4925501;29;19970;-78
2022/02/22 02:46:11;;;;;;;;;;;;;;;3.72;65.98;97649.53;4922702;29;19927;-77
2022/02/22 02:48:39;;;;;;;;;;;;;;;3.75;65.86;97657.06;4925459;29;20452;-80
2022/02/22 02:51:10;;;;;;;;;;;;;;;3.82;65.86;97657.56;4925296;29;19934;-80
2022/02/22 02:53:38;;;;;;;;;;;;;;;3.88;65.61;97659.16;4924090;29;19943;-79
2022/02/22 02:56:08;;;;;;;;;;;;;;;3.79;65.66;97653.56;4909837;29;20336;-78
2022/02/22 02:58:38;;;;;;;;;;;;;;;3.80;65.81;97665.13;4904599;29;19975;-78
2022/02/22 03:01:08;;;;;;;;;;;;;;;3.79;65.88;97669.69;4902377;29;20323;-79
2022/02/22 03:03:36;;;;;;;;;;;;;;;3.77;65.50;97677.19;4907737;29;19927;-80
2022/02/22 03:06:03;;;;;;;;;;;;;;;3.78;65.59;97678.00;4903621;29;19927;-77
2022/02/22 03:08:31;;;;;;;;;;;;;;;3.75;65.81;97683.94;4904980;29;19949;-80
2022/02/22 03:10:59;;;;;;;;;;;;;;;3.92;65.26;97679.84;4907355;29;19927;-79
2022/02/22 03:13:27;;;;;;;;;;;;;;;3.81;65.47;97683.66;4905889;29;19962;-80
2022/02/22 03:15:57;;;;;;;;;;;;;;;3.74;65.77;97695.78;4901700;29;20368;-79
2022/02/22 03:18:25;;;;;;;;;;;;;;;3.72;65.63;97705.97;4906930;29;19927;-80
2022/02/22 03:20:53;;;;;;;;;;;;;;;3.59;66.14;97704.66;4905128;29;20382;-77
2022/02/22 03:23:20;;;;;;;;;;;;;;;3.55;66.15;97712.44;4907211;29;20002;-82
2022/02/22 03:25:49;;;;;;;;;;;;;;;3.55;66.56;97709.75;4905145;29;19995;-78
2022/02/22 03:28:17;;;;;;;;;;;;;;;3.54;66.32;97726.94;4900964;29;19967;-80
2022/02/22 03:30:45;;;;;;;;;;;;;;;3.47;66.76;97737.16;4905008;29;19934;-78
2022/02/22 03:33:14;;;;;;;;;;;;;;;3.47;66.72;97736.38;4904087;29;20298;-79
2022/02/22 03:35:44;;;;;;;;;;;;;;;3.51;66.75;97738.22;4902308;29;19927;-77
2022/02/22 03:38:14;;;;;;;;;;;;;;;3.43;66.71;97738.78;4902483;29;20674;-79
2022/02/22 03:40:42;;;;;;;;;;;;;;;3.41;66.75;97755.16;4902624;29;19983;-77
2022/02/22 03:43:10;;;;;;;;;;;;;;;3.47;66.77;97752.47;4902677;29;19936;-79
2022/02/22 03:45:41;;;;;;;;;;;;;;;3.40;66.65;97763.47;4905498;29;20370;-78
2022/02/22 03:48:08;;;;;;;;;;;;;;;3.38;66.70;97762.94;4904392;29;20449;-79
2022/02/22 03:51:02;;;;;;;;;;;;;;;3.38;66.55;97771.00;4902060;29;19966;-78
2022/02/22 03:53:39;;;;;;;;;;;;;;;3.33;66.54;97777.16;4903888;29;19931;-77
2022/02/22 03:56:32;;;;;;;;;;;;;;;3.35;66.06;97782.25;4911852;29;19938;-80
2022/02/22 03:59:00;;;;;;;;;;;;;;;3.31;66.05;97797.31;4923250;29;19935;-79
2022/02/22 04:01:28;;;;;;;;;;;;;;;3.29;65.32;97784.13;4925887;29;20025;-82
2022/02/22 04:04:05;;;;;;;;;;;;;;;3.26;65.90;97810.72;4924380;29;20034;-77
2022/02/22 04:06:35;;;;;;;;;;;;;;;3.26;65.25;97808.06;4924453;29;19927;-82
2022/02/22 04:09:28;;;;;;;;;;;;;;;3.28;65.23;97811.25;4920692;29;19942;-79
2022/02/22 04:11:56;;;;;;;;;;;;;;;3.27;65.40;97818.50;4921407;29;20056;-78
2022/02/22 04:14:24;;;;;;;;;;;;;;;3.21;65.58;97822.28;4928979;29;19993;-80
2022/02/22 04:16:52;;;;;;;;;;;;;;;3.22;65.34;97826.56;4929525;29;19931;-77
2022/02/22 04:19:20;;;;;;;;;;;;;;;3.21;65.16;97835.69;4928888;29;19927;-77
2022/02/22 04:21:49;;;;;;;;;;;;;;;3.28;65.21;97846.16;4931780;29;19935;-78
2022/02/22 04:24:17;;;;;;;;;;;;;;;3.42;64.90;97839.22;4927672;29;19927;-79
2022/02/22 04:26:45;;;;;;;;;;;;;;;3.29;65.03;97840.53;4930351;29;19927;-77
2022/02/22 04:29:13;;;;;;;;;;;;;;;3.26;65.20;97846.44;4930017;29;20377;-82
2022/02/22 04:31:41;;;;;;;;;;;;;;;3.16;65.30;97849.09;4928088;29;20401;-77
2022/02/22 04:34:09;;;;;;;;;;;;;;;3.21;65.27;97843.75;4926958;29;20346;-80
2022/02/22 04:36:37;;;;;;;;;;;;;;;3.15;65.72;97852.84;4926855;29;20337;-79
2022/02/22 04:39:06;;;;;;;;;;;;;;;3.13;65.67;97854.97;4925641;29;19927;-78
2022/02/22 04:41:37;;;;;;;;;;;;;;;3.17;65.98;97856.06;4931338;29;19927;-78
2022/02/22 04:44:05;;;;;;;;;;;;;;;3.15;65.88;97869.78;4926984;29;19927;-79
2022/02/22 04:46:33;;;;;;;;;;;;;;;3.12;66.24;97866.78;4929159;29;19930;-79
2022/02/22 04:49:00;;;;;;;;;;;;;;;3.07;66.63;97858.72;4927584;29;20342;-80
2022/02/22 04:51:29;;;;;;;;;;;;;;;3.04;66.77;97865.44;4929714;29;19937;-77
2022/02/22 04:53:57;;;;;;;;;;;;;;;3.06;66.97;97878.59;4927312;29;19927;-80
2022/02/22 04:56:26;;;;;;;;;;;;;;;3.09;66.65;97886.09;4927555;29;19973;-77
2022/02/22 04:58:55;;;;;;;;;;;;;;;3.13;66.60;97876.47;4929214;29;20374;-79
2022/02/22 05:01:23;;;;;;;;;;;;;;;3.23;66.69;97889.13;4922358;29;19979;-79
2022/02/22 05:03:55;;;;;;;;;;;;;;;3.20;66.30;97886.97;4927653;29;19930;-77
2022/02/22 05:06:23;;;;;;;;;;;;;;;3.23;66.66;97897.16;4927075;29;20434;-78
2022/02/22 05:08:51;;;;;;;;;;;;;;;3.21;66.42;97908.19;4929308;29;19958;-80
2022/02/22 05:11:20;;;;;;;;;;;;;;;3.21;66.09;97904.69;4925379;29;19966;-79
2022/02/22 05:13:49;;;;;;;;;;;;;;;3.33;65.88;97905.25;4927749;29;20026;-77
2022/02/22 05:16:22;;;;;;;;;;;;;;;3.27;65.57;97909.81;4926277;29;19927;-79
2022/02/22 05:18:50;;;;;;;;;;;;;;;3.25;65.80;97911.13;4932826;29;20282;-78
2022/02/22 05:21:18;;;;;;;;;;;;;;;3.33;65.56;97913.31;4924281;29;19934;-78
2022/02/22 05:23:45;;;;;;;;;;;;;;;3.33;64.64;97918.69;4929851;29;20394;-76
2022/02/22 05:26:13;;;;;;;;;;;;;;;3.37;64.78;97919.78;4916826;29;19952;-79
2022/02/22 05:28:44;;;;;;;;;;;;;;;3.30;64.82;97922.72;4927107;29;19931;-79
2022/02/22 05:31:16;;;;;;;;;;;;;;;3.29;64.83;97918.38;4925896;29;19982;-78
2022/02/22 05:33:45;;;;;;;;;;;;;;;3.41;64.10;97927.03;4922725;29;19935;-80
2022/02/22 05:36:13;;;;;;;;;;;;;;;3.51;64.46;97917.38;4925304;29;19955;-79
2022/02/22 05:38:41;;;;;;;;;;;;;;;3.30;64.74;97936.13;4926400;29;19958;-80
2022/02/22 05:41:35;;;;;;;;;;;;;;;3.20;65.08;97935.28;4926696;29;19994;-77
2022/02/22 05:44:03;;;;;;;;;;;;;;;3.12;65.39;97940.09;4925131;29;19998;-78
2022/02/22 05:46:32;;;;;;;;;;;;;;;3.18;65.45;97954.31;4926332;29;20283;-76
2022/02/22 05:49:00;;;;;;;;;;;;;;;3.10;65.76;97955.66;4925122;29;19927;-79
2022/02/22 05:51:28;;;;;;;;;;;;;;;3.14;65.37;97954.06;4925464;29;19967;-78
2022/02/22 05:54:00;;;;;;;;;;;;;;;3.14;65.45;97959.44;4910562;29;19927;-78
2022/02/22 05:56:28;;;;;;;;;;;;;;;3.19;65.64;97963.19;4896264;29;19934;-77
2022/02/22 05:59:02;;;;;;;;;;;;;;;3.07;65.70;97969.59;4911580;29;19997;-79
2022/02/22 06:01:33;;;;;;;;;;;;;;;3.11;65.69;97973.38;4931289;29;19915;-90
2022/02/22 06:04:01;;;;;;;;;;;;;;;3.05;65.76;97977.09;4952513;29;19986;-88
2022/02/22 06:06:37;;;;;;;;;;;;;;;3.04;65.94;97980.84;4956363;29;19911;-85
2022/02/22 06:09:13;;;;;;;;;;;;;;;3.05;65.76;97990.53;4947520;29;19930;-91
2022/02/22 06:11:43;;;;;;;;;;;;;;;2.96;66.20;97996.63;4956405;28;19934;-92
2022/02/22 06:14:14;;;;;;;;;;;;;;;2.94;66.22;98006.84;4937745;29;20432;-84
2022/02/22 06:16:44;;;;;;;;;;;;;;;2.97;65.96;98011.66;4933266;29;19935;-82
2022/02/22 06:19:12;;;;;;;;;;;;;;;2.97;66.75;98009.78;4926638;29;19931;-90
2022/02/22 06:21:40;;;;;;;;;;;;;;;3.02;66.88;98023.22;4929067;29;19931;-90
2022/02/22 06:24:08;;;;;;;;;;;;;;;3.04;66.83;98031.84;4939378;29;19926;-89
2022/02/22 06:26:36;;;;;;;;;;;;;;;3.06;66.82;98037.75;4945109;29;19927;-93
2022/02/22 06:29:05;;;;;;;;;;;;;;;3.25;66.56;98038.16;4946627;29;19942;-87
2022/02/22 06:31:33;;;;;;;;;;;;;;;3.10;66.93;98036.19;4940551;29;19951;-88
2022/02/22 06:34:04;;;;;;;;;;;;;;;2.96;67.62;98031.53;4951516;29;19939;-90
2022/02/22 06:36:35;;;;;;;;;;;;;;;2.98;67.50;98043.59;4937335;29;19911;-89
2022/02/22 06:39:03;;;;;;;;;;;;;;;2.95;67.42;98048.69;4950436;29;19997;-90
2022/02/22 06:41:41;;;;;;;;;;;;;;;2.97;67.72;98050.03;4949078;29;19941;-92
2022/02/22 06:44:09;;;;;;;;;;;;;;;2.84;68.36;98062.03;4950832;29;20013;-90
2022/02/22 06:46:38;;;;;;;;;;;;;;;2.86;68.43;98059.91;4933008;29;19910;-89
2022/02/22 06:49:10;;;;;;;;;;;;;;;2.85;68.87;98065.53;4939883;29;19917;-89
2022/02/22 06:51:38;;;;;;;;;;;;;;;2.90;68.50;98070.94;4937608;29;19926;-92
2022/02/22 06:54:06;;;;;;;;;;;;;;;2.97;68.60;98068.81;4928663;29;19927;-90
2022/02/22 06:56:34;;;;;;;;;;;;;;;2.97;68.32;98076.06;4918498;29;20500;-92
2022/02/22 06:59:04;;;;;;;;;;;;;;;2.87;68.65;98079.47;4955318;29;19911;-87
2022/02/22 07:04:24;;;;;;;;;;;;;;;2.83;69.15;98092.63;4954137;29;19927;-92
2022/02/22 07:06:56;;;;;;;;;;;;;;;2.85;68.93;98106.59;4952154;29;19927;-85
2022/02/22 07:09:25;;;;;;;;;;;;;;;2.78;69.73;98108.69;4940398;29;19927;-91
2022/02/22 07:11:54;;;;;;;;;;;;;;;2.93;69.29;98113.38;4954532;29;19910;-89
2022/02/22 07:14:24;;;;;;;;;;;;;;;2.99;69.00;98112.34;4939595;29;19933;-93
2022/02/22 07:16:52;;;;;;;;;;;;;;;2.95;68.92;98119.28;4950682;29;20003;-85
2022/02/22 07:19:20;;;;;;;;;;;;;;;3.02;68.21;98122.53;4953426;29;19927;-90
2022/02/22 07:24:43;;;;;;;;;;;;;;;3.05;67.17;98143.50;4957503;29;19926;-91
2022/02/22 07:27:11;;;;;;;;;;;;;;;2.99;67.50;98138.38;4954212;29;19934;-90
2022/02/22 07:29:43;;;;;;;;;;;;;;;2.93;67.53;98140.22;4956461;29;19945;-89
2022/02/22 07:32:11;;;;;;;;;;;;;;;3.03;67.60;98150.19;4956207;29;19927;-92
2022/02/22 07:34:41;;;;;;;;;;;;;;;3.00;68.34;98156.09;4952484;29;19918;-87
2022/02/22 07:37:10;;;;;;;;;;;;;;;3.10;68.36;98167.72;4953073;29;19930;-92
2022/02/22 07:39:38;;;;;;;;;;;;;;;3.24;68.17;98151.16;4946878;29;19914;-93
2022/02/22 07:42:06;;;;;;;;;;;;;;;3.36;67.59;98154.47;4943505;29;19934;-89
2022/02/22 07:44:34;;;;;;;;;;;;;;;3.54;67.24;98146.00;4949671;29;20287;-92
2022/02/22 07:47:04;;;;;;;;;;;;;;;3.52;67.52;98150.03;4950378;29;19954;-86
2022/02/22 07:49:33;;;;;;;;;;;;;;;3.38;67.88;98145.09;4954598;29;19978;-91
2022/02/22 07:52:23;;;;;;;;;;;;;;;3.49;67.74;98148.66;4955385;29;19935;-90
2022/02/22 07:54:51;;;;;;;;;;;;;;;3.57;67.25;98160.75;4952111;29;19918;-91
2022/02/22 07:57:19;;;;;;;;;;;;;;;3.70;67.10;98167.56;4953826;29;19927;-92
2022/02/22 07:59:47;;;;;;;;;;;;;;;3.59;67.00;98177.44;4950879;29;19926;-92
2022/02/22 08:02:16;;;;;;;;;;;;;;;3.61;66.96;98181.47;4953370;29;19927;-93
2022/02/22 08:04:51;;;;;;;;;;;;;;;3.75;66.57;98200.66;4948156;29;19926;-91
2022/02/22 08:10:12;;;;;;;;;;;;;;;3.93;66.32;98207.47;4934501;29;19927;-92
2022/02/22 08:12:41;;;;;;;;;;;;;;;3.97;66.12;98210.44;4950479;29;19927;-89
2022/02/22 08:15:09;;;;;;;;;;;;;;;3.81;66.68;98215.72;4955411;29;19954;-91
2022/02/22 08:17:41;;;;;;;;;;;;;;;3.98;66.36;98225.50;4946510;29;19942;-89
2022/02/22 08:20:10;;;;;;;;;;;;;;;3.84;66.68;98223.28;4946688;29;19990;-90
2022/02/22 08:23:03;;;;;;;;;;;;;;;4.05;66.41;98240.34;4950846;29;19978;-92
2022/02/22 08:25:31;;;;;;;;;;;;;;;3.99;66.38;98233.31;4944660;29;20378;-91
2022/02/22 08:28:07;;;;;;;;;;;;;;;3.85;67.10;98245.59;4936502;29;19958;-91
2022/02/22 08:30:38;;;;;;;;;;;;;;;3.90;66.44;98253.69;4934659;29;19930;-91
2022/02/22 08:33:08;;;;;;;;;;;;;;;3.96;65.99;98249.16;4933935;29;20439;-91
2022/02/22 08:35:36;;;;;;;;;;;;;;;3.99;65.76;98259.38;4940344;29;20405;-91
2022/02/22 08:38:08;;;;;;;;;;;;;;;4.06;65.95;98254.59;4938395;29;20377;-90
2022/02/22 08:40:37;;;;;;;;;;;;;;;4.04;65.95;98268.28;4938882;29;19930;-91
2022/02/22 08:43:05;;;;;;;;;;;;;;;4.09;65.43;98265.63;4923373;29;19926;-92
2022/02/22 08:45:33;;;;;;;;;;;;;;;4.17;64.37;98267.84;4933653;29;19970;-89
2022/02/22 08:48:01;;;;;;;;;;;;;;;4.35;64.56;98269.25;4936739;29;19911;-92
2022/02/22 08:50:31;;;;;;;;;;;;;;;4.38;63.98;98274.13;4955287;29;19911;-83
2022/02/22 08:53:25;;;;;;;;;;;;;;;4.44;63.69;98277.66;4943443;29;19926;-92
2022/02/22 08:55:53;;;;;;;;;;;;;;;4.32;63.64;98274.38;4941772;29;19926;-93
2022/02/22 08:58:21;;;;;;;;;;;;;;;4.35;63.48;98279.22;4946036;29;20382;-93
2022/02/22 09:00:49;;;;;;;;;;;;;;;4.46;63.47;98281.69;4949805;29;19931;-89
2022/02/22 09:03:17;;;;;;;;;;;;;;;4.42;62.70;98283.28;4946176;29;19951;-88
2022/02/22 09:05:47;;;;;;;;;;;;;;;4.65;62.72;98289.31;4942290;29;19927;-90
2022/02/22 09:08:21;;;;;;;;;;;;;;;4.53;62.72;98288.69;4936222;29;19927;-90
2022/02/22 09:10:52;;;;;;;;;;;;;;;4.65;62.23;98295.50;4947901;29;20494;-88
2022/02/22 09:13:20;;;;;;;;;;;;;;;4.61;61.95;98301.66;4935151;29;19927;-91
2022/02/22 09:15:49;;;;;;;;;;;;;;;4.84;61.64;98301.19;4936640;29;20008;-89
2022/02/22 09:18:17;;;;;;;;;;;;;;;5.07;60.69;98307.22;4926074;29;19942;-91
2022/02/22 09:20:47;;;;;;;;;;;;;;;4.87;60.69;98307.94;4934934;29;19927;-89
2022/02/22 09:26:11;;;;;;;;;;;;;;;5.13;60.34;98311.53;4935847;29;20013;-92
2022/02/22 09:28:39;;;;;;;;;;;;;;;4.99;59.57;98316.59;4937003;29;19966;-92
2022/02/22 09:31:11;;;;;;;;;;;;;;;5.16;59.22;98319.06;4929679;29;19927;-92
2022/02/22 09:33:43;;;;;;;;;;;;;;;4.88;59.61;98323.03;4937282;29;20357;-92
2022/02/22 09:36:15;;;;;;;;;;;;;;;4.87;59.52;98318.72;4926665;29;19931;-91
2022/02/22 09:38:44;;;;;;;;;;;;;;;5.10;58.71;98331.69;4920852;29;19965;-92
2022/02/22 09:41:14;;;;;;;;;;;;;;;5.13;57.20;98323.09;4939472;29;19927;-91
2022/02/22 09:43:43;;;;;;;;;;;;;;;5.34;57.28;98325.84;4932126;29;19927;-92
2022/02/22 09:46:13;;;;;;;;;;;;;;;5.44;56.99;98329.38;4930214;29;19927;-90
2022/02/22 09:48:41;;;;;;;;;;;;;;;5.34;57.11;98328.53;4928568;29;19931;-92
2022/02/22 09:51:09;;;;;;;;;;;;;;;5.23;56.78;98335.78;4930631;29;19927;-88
2022/02/22 09:53:42;;;;;;;;;;;;;;;5.13;57.47;98341.16;4920832;29;19934;-89
2022/02/22 09:56:33;;;;;;;;;;;;;;;5.17;57.37;98334.97;4934218;29;20013;-93
2022/02/22 09:59:02;;;;;;;;;;;;;;;5.16;57.35;98343.28;4928062;29;20308;-92
2022/02/22 10:01:38;;;;;;;;;;;;;;;5.04;56.87;98343.53;4932294;29;20385;-92
2022/02/22 10:04:07;;;;;;;;;;;;;;;4.96;57.72;98336.00;4933253;29;19947;-91
2022/02/22 10:06:37;;;;;;;;;;;;;;;5.02;57.49;98342.19;4930967;29;20407;-92
2022/02/22 10:09:32;;;;;;;;;;;;;;;5.14;56.78;98340.06;4933946;29;19930;-92
2022/02/22 10:12:00;;;;;;;;;;;;;;;5.10;56.93;98334.41;4932560;29;20388;-91
2022/02/22 10:14:29;;;;;;;;;;;;;;;5.16;56.39;98337.91;4934799;29;19926;-92
2022/02/22 10:16:58;;;;;;;;;;;;;;;5.08;56.11;98341.13;4917036;29;19930;-91
2022/02/22 10:19:26;;;;;;;;;;;;;;;5.25;55.52;98342.53;4928130;29;19983;-90
2022/02/22 10:21:56;;;;;;;;;;;;;;;5.35;55.05;98344.44;4928178;29;20445;-91
2022/02/22 10:24:25;;;;;;;;;;;;;;;5.72;55.36;98346.09;4929599;29;19934;-90
2022/02/22 10:27:03;;;;;;;;;;;;;;;5.62;54.39;98336.13;4932640;29;19931;-92
2022/02/22 10:29:32;;;;;;;;;;;;;;;5.61;53.89;98334.50;4926837;29;19958;-91
2022/02/22 10:32:10;;;;;;;;;;;;;;;5.56;54.46;98345.28;4910796;29;19934;-89
2022/02/22 10:34:38;;;;;;;;;;;;;;;5.40;54.03;98332.84;4931323;29;20338;-92
2022/02/22 10:37:06;;;;;;;;;;;;;;;5.45;54.42;98340.94;4929808;29;19934;-90
2022/02/22 10:39:34;;;;;;;;;;;;;;;5.31;55.37;98345.22;4932305;29;19934;-92
2022/02/22 10:42:09;;;;;;;;;;;;;;;5.32;55.41;98349.53;4931193;29;19935;-91
2022/02/22 10:44:41;;;;;;;;;;;;;;;5.21;55.32;98336.03;4932242;29;20010;-92
2022/02/22 10:47:11;;;;;;;;;;;;;;;5.29;55.75;98342.00;4925699;29;19927;-90
2022/02/22 10:49:40;;;;;;;;;;;;;;;5.30;54.72;98332.84;4934031;29;19927;-91
2022/02/22 10:52:11;;;;;;;;;;;;;;;5.76;54.27;98334.50;4926143;29;19985;-89
2022/02/22 10:54:41;;;;;;;;;;;;;;;5.98;53.53;98325.38;4930653;29;19927;-88
2022/02/22 10:57:10;;;;;;;;;;;;;;;5.98;52.47;98328.06;4946804;29;19942;-91
2022/02/22 10:59:40;;;;;;;;;;;;;;;5.87;52.20;98326.44;4939264;29;20291;-91
2022/02/22 11:02:09;;;;;;;;;;;;;;;5.73;51.27;98337.72;4941118;29;19954;-83
2022/02/22 11:04:37;;;;;;;;;;;;;;;5.61;51.38;98331.81;4936693;29;19931;-89
2022/02/22 11:07:29;;;;;;;;;;;;;;;5.79;51.81;98330.44;4943784;28;19938;-90
2022/02/22 11:09:58;;;;;;;;;;;;;;;5.78;50.81;98324.25;4942646;29;19997;-90
2022/02/22 11:12:33;;;;;;;;;;;;;;;6.19;50.14;98326.97;4938039;29;19934;-88
2022/02/22 11:15:05;;;;;;;;;;;;;;;6.51;49.24;98326.63;4932500;29;20386;-90
2022/02/22 11:17:34;;;;;;;;;;;;;;;6.84;49.11;98324.34;4930175;29;19982;-84
2022/02/22 11:20:02;;;;;;;;;;;;;;;6.91;48.30;98319.44;4929179;29;20602;-87
2022/02/22 11:22:30;;;;;;;;;;;;;;;6.50;48.03;98308.81;4930570;29;21875;-91
2022/02/22 11:25:00;;;;;;;;;;;;;;;6.51;49.32;98317.72;4924059;29;19934;-88
2022/02/22 11:27:30;;;;;;;;;;;;;;;6.50;49.78;98316.91;4920898;29;19930;-89
2022/02/22 11:30:23;;;;;;;;;;;;;;;6.50;48.80;98318.81;4920242;29;20279;-80
2022/02/22 11:36:12;;;;;;;;;;;;;;;6.93;47.13;98327.28;4926126;29;19933;-81
2022/02/22 11:38:45;;;;;;;;;;;;;;;6.93;47.60;98333.50;4928768;29;20392;-91
2022/02/22 11:41:31;;;;;;;;;;;;;;;6.78;47.52;98326.25;4926588;29;19931;-90
2022/02/22 11:44:16;;;;;;;;;;;;;;;6.74;47.94;98327.88;4929442;29;19931;-83
2022/02/22 11:46:54;;;;;;;;;;;;;;;7.05;47.59;98331.25;4926474;29;19986;-88
2022/02/22 11:49:23;;;;;;;;;;;;;;;6.94;48.06;98327.00;4933085;29;20017;-85
2022/02/22 11:52:09;;;;;;;;;;;;;;;6.87;48.77;98339.16;4932731;29;19927;-86
2022/02/22 11:54:40;;;;;;;;;;;;;;;7.17;48.31;98330.13;4932289;29;19998;-86
2022/02/22 11:57:15;;;;;;;;;;;;;;;6.60;47.93;98329.53;4936945;29;19927;-87
2022/02/22 12:00:00;;;;;;;;;;;;;;;6.60;48.37;98324.13;4932029;29;19926;-89
2022/02/22 12:02:42;;;;;;;;;;;;;;;6.64;48.78;98319.00;4933794;29;19927;-88
2022/02/22 12:05:23;;;;;;;;;;;;;;;6.76;48.52;98314.91;4942791;29;19950;-86
2022/02/22 12:08:00;;;;;;;;;;;;;;;6.88;47.63;98317.31;4929208;29;19941;-87
2022/02/22 12:10:28;;;;;;;;;;;;;;;6.73;47.41;98320.88;4929741;29;19969;-93
2022/02/22 12:13:05;;;;;;;;;;;;;;;6.65;47.98;98332.22;4920413;29;19926;-94
2022/02/22 12:15:33;;;;;;;;;;;;;;;6.73;47.50;98331.66;4919537;29;20374;-92
2022/02/22 12:18:01;;;;;;;;;;;;;;;6.88;47.20;98335.41;4931238;29;19954;-88
2022/02/22 12:20:30;;;;;;;;;;;;;;;6.87;47.10;98339.16;4917210;29;19986;-91
2022/02/22 12:23:00;;;;;;;;;;;;;;;6.93;46.84;98349.69;4918332;29;19927;-91
2022/02/22 12:25:29;;;;;;;;;;;;;;;7.03;47.62;98356.91;4925483;29;20401;-87
2022/02/22 12:28:00;;;;;;;;;;;;;;;6.88;47.15;98357.00;4928621;29;19931;-88
2022/02/22 12:30:32;;;;;;;;;;;;;;;6.80;47.16;98353.78;4926493;29;19926;-83
2022/02/22 12:33:00;;;;;;;;;;;;;;;6.90;46.91;98354.84;4931297;29;19938;-90
2022/02/22 12:35:31;;;;;;;;;;;;;;;7.05;47.54;98358.28;4933437;29;19966;-87
2022/02/22 12:38:14;;;;;;;;;;;;;;;6.81;47.29;98368.88;4926804;29;19927;-79
2022/02/22 12:40:42;;;;;;;;;;;;;;;7.06;47.39;98357.19;4932640;29;19934;-93
2022/02/22 12:43:30;;;;;;;;;;;;;;;6.77;47.70;98361.63;4935024;29;20393;-89
2022/02/22 12:45:59;;;;;;;;;;;;;;;6.75;48.25;98358.38;4922006;29;19931;-89
2022/02/22 12:48:28;;;;;;;;;;;;;;;6.75;48.19;98353.78;4916810;29;19941;-85
2022/02/22 12:50:56;;;;;;;;;;;;;;;6.68;48.39;98363.28;4926538;29;19927;-80
2022/02/22 12:53:26;;;;;;;;;;;;;;;6.61;48.55;98350.06;4917883;29;19927;-83
2022/02/22 12:55:55;;;;;;;;;;;;;;;6.68;48.51;98347.09;4944273;29;19991;-92
2022/02/22 12:58:30;;;;;;;;;;;;;;;6.81;48.88;98352.69;4940365;29;20018;-87
2022/02/22 13:01:10;;;;;;;;;;;;;;;6.86;49.19;98348.34;4930551;29;19941;-77
2022/02/22 13:03:43;;;;;;;;;;;;;;;7.02;48.84;98358.00;4929962;29;20013;-82
2022/02/22 13:06:12;;;;;;;;;;;;;;;6.89;49.19;98358.63;4936724;29;19931;-91
2022/02/22 13:08:41;;;;;;;;;;;;;;;6.90;49.31;98344.03;4924748;29;19936;-82
2022/02/22 13:11:10;;;;;;;;;;;;;;;6.91;49.19;98340.25;4928251;29;19990;-89
2022/02/22 13:13:38;;;;;;;;;;;;;;;6.99;49.19;98336.97;4915673;29;19931;-86
2022/02/22 13:16:09;;;;;;;;;;;;;;;6.99;49.49;98335.06;4895918;29;20013;-92
2022/02/22 13:18:38;;;;;;;;;;;;;;;6.98;49.62;98346.16;4933651;29;19941;-92
2022/02/22 13:21:12;;;;;;;;;;;;;;;7.20;49.59;98327.69;4934399;29;19930;-93
2022/02/22 13:23:41;;;;;;;;;;;;;;;7.18;49.80;98327.13;4936128;29;19935;-90
2022/02/22 13:26:09;;;;;;;;;;;;;;;7.27;49.77;98314.66;4934358;29;19927;-94
2022/02/22 13:28:37;;;;;;;;;;;;;;;7.39;49.18;98302.69;4941331;29;19942;-92
2022/02/22 13:31:13;;;;;;;;;;;;;;;7.43;49.58;98299.16;4930392;29;19935;-91
2022/02/22 13:33:41;;;;;;;;;;;;;;;7.44;49.62;98295.34;4929986;29;20356;-92
2022/02/22 13:36:13;;;;;;;;;;;;;;;7.64;48.95;98302.50;4927198;29;19931;-88